Temp: 19.1°C   Baro: 995.8mb
  Wind: 2.0mph   Dir: ENE (78°)
  Rain: 0.0mm (0.0mm/hr)
  Solar: 373W/m2  Hum: 58%
 
Cotswold Observatory Historical Data
 
Daily Summary for April 23, 2019 Units:  Metric    English   Both
Next Day »
Daily Weekly Monthly Yearly Custom
  Current: High: Low: Average:
Temperature: 19.0 °C 19.0 °C 12.9 °C 14.6 °C
Dew Point: 10.5 °C 11.0 °C 8.1 °C 9 °C
Humidity: 58% 74% 58% 69%
Wind Speed: 6.4km/h 14.3km/h 0.0km/h 4km/h
Wind Gust: 9.7km/h 17.7km/h - -
Wind directionENE - - ESE
Pressure: 995.8 hPa 999.9 hPa 995.8 hPa -
Precipitation: 0.0 mm      
Historical Graphs
 
 
Tabular Data for April 23, 2019
Time Temperature Dew Point Pressure Wind direction Wind Speed Wind Gust Humidity Rainfall Rate (Hourly) solar
00:04 15.2 °C 9.5 °C 999.9 hPa Calm     69% 0.0 mm 0.00 W/m2
00:09 15.2 °C 9.5 °C 999.9 hPa Calm     69% 0.0 mm 0.00 W/m2
00:14 15.1 °C 9.7 °C 999.9 hPa SE 3.2 km/h 3.2 km/h 70% 0.0 mm 0.00 W/m2
00:19 15.0 °C 9.6 °C 999.9 hPa SE 1.4 km/h 3.2 km/h 70% 0.0 mm 0.00 W/m2
00:24 14.9 °C 9.7 °C 999.9 hPa SE 6.4 km/h 9.7 km/h 71% 0.0 mm 0.00 W/m2
00:29 14.9 °C 9.7 °C 999.9 hPa ESE 3.2 km/h 4.8 km/h 71% 0.0 mm 0.00 W/m2
00:34 14.8 °C 9.4 °C 999.9 hPa ESE 3.2 km/h 6.4 km/h 70% 0.0 mm 0.00 W/m2
00:39 14.8 °C 9.4 °C 999.9 hPa East 7.9 km/h 8.0 km/h 70% 0.0 mm 0.00 W/m2
00:44 14.8 °C 9.2 °C 999.9 hPa ESE 3.2 km/h 6.4 km/h 69% 0.0 mm 0.00 W/m2
00:49 14.8 °C 9.2 °C 999.9 hPa ESE 4.7 km/h 12.9 km/h 69% 0.0 mm 0.00 W/m2
00:54 14.7 °C 9.1 °C 999.5 hPa ESE 4.7 km/h 6.4 km/h 69% 0.0 mm 0.00 W/m2
00:59 14.7 °C 9.1 °C 999.5 hPa SE 4.7 km/h 4.8 km/h 69% 0.0 mm 0.00 W/m2
01:04 14.6 °C 9.0 °C 999.5 hPa SE 3.2 km/h 3.2 km/h 69% 0.0 mm 0.00 W/m2
01:09 14.6 °C 9.0 °C 999.5 hPa SE 3.2 km/h 3.2 km/h 69% 0.0 mm 0.00 W/m2
01:14 14.6 °C 9.0 °C 999.5 hPa Calm   3.2 km/h 69% 0.0 mm 0.00 W/m2
01:19 14.4 °C 8.8 °C 999.5 hPa Calm     69% 0.0 mm 0.00 W/m2
01:24 14.4 °C 8.8 °C 999.2 hPa Calm   1.6 km/h 69% 0.0 mm 0.00 W/m2
01:29 14.4 °C 9.0 °C 999.2 hPa SE 1.4 km/h 3.2 km/h 70% 0.0 mm 0.00 W/m2
01:34 14.3 °C 8.9 °C 999.2 hPa Calm   4.8 km/h 70% 0.0 mm 0.00 W/m2
01:39 14.3 °C 8.9 °C 999.2 hPa Calm   9.7 km/h 70% 0.0 mm 0.00 W/m2
01:44 14.3 °C 8.9 °C 999.2 hPa Calm     70% 0.0 mm 0.00 W/m2
01:49 14.3 °C 8.9 °C 999.2 hPa Calm     70% 0.0 mm 0.00 W/m2
01:54 14.2 °C 9.0 °C 999.2 hPa Calm     71% 0.0 mm 0.00 W/m2
01:59 14.2 °C 9.0 °C 999.2 hPa Calm     71% 0.0 mm 0.00 W/m2
02:04 14.1 °C 9.1 °C 998.9 hPa Calm     72% 0.0 mm 0.00 W/m2
02:09 14.0 °C 9.0 °C 998.9 hPa Calm     72% 0.0 mm 0.00 W/m2
02:14 13.9 °C 8.9 °C 998.9 hPa Calm     72% 0.0 mm 0.00 W/m2
02:19 13.9 °C 9.1 °C 998.9 hPa Calm     73% 0.0 mm 0.00 W/m2
02:24 13.9 °C 8.9 °C 998.9 hPa Calm     72% 0.0 mm 0.00 W/m2
02:29 13.9 °C 8.9 °C 998.5 hPa ESE 9.7 km/h 9.7 km/h 72% 0.0 mm 0.00 W/m2
02:34 14.0 °C 8.8 °C 998.5 hPa ESE 3.2 km/h 11.3 km/h 71% 0.0 mm 0.00 W/m2
02:39 14.1 °C 8.9 °C 998.5 hPa East 3.2 km/h 3.2 km/h 71% 0.0 mm 0.00 W/m2
02:44 14.1 °C 8.7 °C 998.5 hPa ESE 3.2 km/h 9.7 km/h 70% 0.0 mm 0.00 W/m2
02:49 14.2 °C 8.8 °C 998.5 hPa SE 4.7 km/h 6.4 km/h 70% 0.0 mm 0.00 W/m2
02:54 14.3 °C 8.9 °C 998.5 hPa East 4.7 km/h 12.9 km/h 70% 0.0 mm 0.00 W/m2
02:59 14.3 °C 8.9 °C 998.2 hPa SE 1.4 km/h 8.0 km/h 70% 0.0 mm 0.00 W/m2
03:04 14.3 °C 8.7 °C 998.2 hPa Calm   6.4 km/h 69% 0.0 mm 0.00 W/m2
03:09 14.4 °C 8.8 °C 998.2 hPa East 4.7 km/h 4.8 km/h 69% 0.0 mm 0.00 W/m2
03:14 14.4 °C 8.8 °C 998.2 hPa SE 7.9 km/h 12.9 km/h 69% 0.0 mm 0.00 W/m2
03:19 14.4 °C 8.8 °C 998.2 hPa SE 3.2 km/h 16.1 km/h 69% 0.0 mm 0.00 W/m2
03:24 14.4 °C 8.6 °C 997.9 hPa ESE 4.7 km/h 9.7 km/h 68% 0.0 mm 0.00 W/m2
03:29 14.4 °C 8.8 °C 997.9 hPa SE 4.7 km/h 6.4 km/h 69% 0.0 mm 0.00 W/m2
03:34 14.4 °C 8.8 °C 997.9 hPa ESE 3.2 km/h 6.4 km/h 69% 0.0 mm 0.00 W/m2
03:39 14.3 °C 8.7 °C 997.9 hPa East 6.4 km/h 11.3 km/h 69% 0.0 mm 0.00 W/m2
03:44 14.3 °C 8.7 °C 997.9 hPa ESE 3.2 km/h 6.4 km/h 69% 0.0 mm 0.00 W/m2
03:49 14.3 °C 8.7 °C 997.9 hPa Calm   4.8 km/h 69% 0.0 mm 0.00 W/m2
03:54 14.3 °C 8.7 °C 997.9 hPa East 4.7 km/h 4.8 km/h 69% 0.0 mm 0.00 W/m2
03:59 14.2 °C 8.6 °C 997.9 hPa ENE 7.9 km/h 8.0 km/h 69% 0.0 mm 0.00 W/m2
04:04 14.4 °C 8.6 °C 997.9 hPa ESE 4.7 km/h 4.8 km/h 68% 0.0 mm 0.00 W/m2
04:09 14.5 °C 8.4 °C 997.5 hPa Calm   9.7 km/h 67% 0.0 mm 0.00 W/m2
04:14 14.5 °C 8.4 °C 997.5 hPa Calm   3.2 km/h 67% 0.0 mm 0.00 W/m2
04:19 14.4 °C 8.3 °C 997.5 hPa SE 3.2 km/h 6.4 km/h 67% 0.0 mm 0.00 W/m2
04:24 14.3 °C 8.3 °C 997.5 hPa Calm   3.2 km/h 67% 0.0 mm 0.00 W/m2
04:29 14.3 °C 8.3 °C 997.5 hPa SE 3.2 km/h 6.4 km/h 67% 0.0 mm 0.00 W/m2
04:34 14.3 °C 8.3 °C 997.2 hPa Calm   1.6 km/h 67% 0.0 mm 0.00 W/m2
04:39 14.2 °C 8.4 °C 997.2 hPa Calm     68% 0.0 mm 0.00 W/m2
04:44 14.1 °C 8.3 °C 997.2 hPa Calm   1.6 km/h 68% 0.0 mm 0.00 W/m2
04:49 13.9 °C 8.1 °C 997.2 hPa ESE 4.8 km/h 4.8 km/h 68% 0.0 mm 0.00 W/m2
04:54 13.8 °C 8.2 °C 997.2 hPa ESE 4.7 km/h 6.4 km/h 69% 0.0 mm 0.00 W/m2
04:59 13.7 °C 8.1 °C 997.2 hPa Calm   6.4 km/h 69% 0.0 mm 0.00 W/m2
05:04 13.7 °C 8.1 °C 997.2 hPa ENE 9.7 km/h 9.7 km/h 69% 0.0 mm 0.00 W/m2
05:09 13.6 °C 8.2 °C 996.8 hPa East 3.2 km/h 8.0 km/h 70% 0.0 mm 0.00 W/m2
05:14 13.6 °C 8.2 °C 996.8 hPa East 1.4 km/h 6.4 km/h 70% 0.0 mm 0.00 W/m2
05:19 13.5 °C 8.1 °C 996.8 hPa ENE 1.4 km/h 4.8 km/h 70% 0.0 mm 0.00 W/m2
05:24 13.4 °C 8.2 °C 996.8 hPa Calm   3.2 km/h 71% 0.0 mm 0.00 W/m2
05:29 13.3 °C 8.2 °C 996.8 hPa East 3.2 km/h 8.0 km/h 71% 0.0 mm 0.00 W/m2
05:34 13.3 °C 8.2 °C 996.8 hPa Calm   6.4 km/h 71% 0.0 mm 0.00 W/m2
05:39 13.1 °C 8.2 °C 996.8 hPa Calm     72% 0.0 mm 0.00 W/m2
05:44 13.0 °C 8.1 °C 996.8 hPa ESE 3.2 km/h 8.0 km/h 72% 0.0 mm 0.00 W/m2
05:49 12.9 °C 8.2 °C 996.8 hPa ENE 6.4 km/h 8.0 km/h 73% 0.0 mm 0.00 W/m2
05:54 13.0 °C 8.1 °C 996.8 hPa ESE 4.7 km/h 16.1 km/h 72% 0.0 mm 0.00 W/m2
05:59 13.1 °C 8.2 °C 996.8 hPa ESE 9.7 km/h 12.9 km/h 72% 0.0 mm 0.00 W/m2
06:04 13.2 °C 8.3 °C 996.8 hPa ESE 3.2 km/h 3.2 km/h 72% 0.0 mm 0.00 W/m2
06:09 13.2 °C 8.3 °C 996.8 hPa ESE 6.4 km/h 11.3 km/h 72% 0.0 mm 0.00 W/m2
06:14 13.3 °C 8.4 °C 996.8 hPa ESE 11.1 km/h 14.5 km/h 72% 0.0 mm 5.00 W/m2
06:19 13.4 °C 8.2 °C 996.8 hPa SE 14.3 km/h 14.5 km/h 71% 0.0 mm 9.00 W/m2
06:24 13.5 °C 8.3 °C 996.8 hPa SE 13.0 km/h 12.9 km/h 71% 0.0 mm 12.00 W/m2
06:29 13.5 °C 8.3 °C 996.8 hPa East 6.4 km/h 6.4 km/h 71% 0.0 mm 18.00 W/m2
06:34 13.4 °C 8.2 °C 996.8 hPa SE 3.2 km/h 17.7 km/h 71% 0.0 mm 21.00 W/m2
06:39 13.3 °C 8.4 °C 996.8 hPa SE 11.1 km/h 12.9 km/h 72% 0.0 mm 26.00 W/m2
06:44 13.3 °C 8.6 °C 996.8 hPa SE 7.9 km/h 8.0 km/h 73% 0.0 mm 28.00 W/m2
06:49 13.2 °C 8.5 °C 996.5 hPa East 9.7 km/h 14.5 km/h 73% 0.0 mm 32.00 W/m2
06:54 13.1 °C 8.6 °C 996.5 hPa ESE 4.7 km/h 6.4 km/h 74% 0.0 mm 37.00 W/m2
06:59 13.1 °C 8.6 °C 996.5 hPa East 1.4 km/h 11.3 km/h 74% 0.0 mm 40.00 W/m2
07:04 13.1 °C 8.6 °C 996.8 hPa SE 1.4 km/h 4.8 km/h 74% 0.0 mm 46.00 W/m2
07:09 13.1 °C 8.6 °C 996.8 hPa ESE 4.7 km/h 4.8 km/h 74% 0.0 mm 53.00 W/m2
07:14 13.1 °C 8.6 °C 996.8 hPa NE 4.7 km/h 9.7 km/h 74% 0.0 mm 58.00 W/m2
07:19 13.2 °C 8.7 °C 996.8 hPa ESE 6.4 km/h 16.1 km/h 74% 0.0 mm 63.00 W/m2
07:24 13.2 °C 8.7 °C 996.8 hPa ESE 9.7 km/h 12.9 km/h 74% 0.0 mm 70.00 W/m2
07:29 13.2 °C 8.7 °C 996.8 hPa ESE 13.0 km/h 12.9 km/h 74% 0.0 mm 79.00 W/m2
07:34 13.2 °C 8.7 °C 996.8 hPa SE 1.4 km/h 3.2 km/h 74% 0.0 mm 79.00 W/m2
07:39 13.2 °C 8.7 °C 996.8 hPa East 11.1 km/h 11.3 km/h 74% 0.0 mm 84.00 W/m2
07:44 13.3 °C 8.8 °C 996.8 hPa Calm   3.2 km/h 74% 0.0 mm 88.00 W/m2
07:49 13.3 °C 8.8 °C 996.8 hPa Calm   11.3 km/h 74% 0.0 mm 93.00 W/m2
07:54 13.3 °C 8.8 °C 996.8 hPa ENE 3.2 km/h 8.0 km/h 74% 0.0 mm 100.00 W/m2
07:59 13.4 °C 8.9 °C 996.8 hPa ESE 7.9 km/h 8.0 km/h 74% 0.0 mm 114.00 W/m2
08:04 13.4 °C 8.9 °C 996.5 hPa ENE 1.4 km/h 4.8 km/h 74% 0.0 mm 104.00 W/m2
08:09 13.4 °C 8.9 °C 996.5 hPa ESE 9.7 km/h 9.7 km/h 74% 0.0 mm 120.00 W/m2
08:14 13.5 °C 8.8 °C 996.5 hPa East 1.4 km/h 12.9 km/h 73% 0.0 mm 113.00 W/m2
08:19 13.6 °C 9.1 °C 996.5 hPa SSE 3.2 km/h 9.7 km/h 74% 0.0 mm 151.00 W/m2
08:24 13.6 °C 8.9 °C 996.5 hPa ESE 4.7 km/h 12.9 km/h 73% 0.0 mm 171.00 W/m2
08:29 13.7 °C 8.9 °C 996.5 hPa ESE 4.7 km/h 8.0 km/h 73% 0.0 mm 172.00 W/m2
08:34 13.8 °C 9.0 °C 996.5 hPa SE 3.2 km/h 12.9 km/h 73% 0.0 mm 206.00 W/m2
08:39 13.9 °C 9.1 °C 996.5 hPa East 1.4 km/h 4.8 km/h 73% 0.0 mm 174.00 W/m2
08:44 14.0 °C 9.0 °C 996.5 hPa ESE 6.4 km/h 6.4 km/h 72% 0.0 mm 155.00 W/m2
08:49 14.1 °C 9.1 °C 996.5 hPa East 3.2 km/h 4.8 km/h 72% 0.0 mm 171.00 W/m2
08:54 14.1 °C 9.1 °C 996.5 hPa Calm   6.4 km/h 72% 0.0 mm 176.00 W/m2
08:59 14.2 °C 9.2 °C 996.5 hPa Calm   6.4 km/h 72% 0.0 mm 216.00 W/m2
09:04 14.2 °C 9.2 °C 996.5 hPa East 3.2 km/h 6.4 km/h 72% 0.0 mm 253.00 W/m2
09:09 14.3 °C 9.1 °C 996.5 hPa ENE 1.4 km/h 6.4 km/h 71% 0.0 mm 281.00 W/m2
09:14 14.4 °C 9.2 °C 996.5 hPa ENE 4.7 km/h 6.4 km/h 71% 0.0 mm 265.00 W/m2
09:19 14.5 °C 9.3 °C 996.5 hPa East 6.4 km/h 11.3 km/h 71% 0.0 mm 260.00 W/m2
09:24 14.6 °C 9.4 °C 996.5 hPa East 3.2 km/h 11.3 km/h 71% 0.0 mm 304.00 W/m2
09:29 14.7 °C 9.5 °C 996.5 hPa ENE 4.7 km/h 9.7 km/h 71% 0.0 mm 396.00 W/m2
09:34 14.8 °C 9.6 °C 996.5 hPa East 4.7 km/h 9.7 km/h 71% 0.0 mm 301.00 W/m2
09:39 15.0 °C 9.8 °C 996.5 hPa ENE 6.4 km/h 8.0 km/h 71% 0.0 mm 362.00 W/m2
09:44 15.1 °C 9.7 °C 996.5 hPa East 3.2 km/h 11.3 km/h 70% 0.0 mm 350.00 W/m2
09:49 15.3 °C 9.9 °C 996.5 hPa NE 1.4 km/h 11.3 km/h 70% 0.0 mm 346.00 W/m2
09:54 15.5 °C 10.1 °C 996.5 hPa East 4.7 km/h 8.0 km/h 70% 0.0 mm 332.00 W/m2
09:59 15.8 °C 10.1 °C 996.2 hPa ENE 6.4 km/h 9.7 km/h 69% 0.0 mm 355.00 W/m2
10:04 15.9 °C 10.0 °C 996.2 hPa ESE 4.7 km/h 11.3 km/h 68% 0.0 mm 369.00 W/m2
10:09 16.2 °C 10.3 °C 996.2 hPa ESE 4.7 km/h 9.7 km/h 68% 0.0 mm 318.00 W/m2
10:14 16.4 °C 10.3 °C 996.2 hPa ESE 13.0 km/h 12.9 km/h 67% 0.0 mm 329.00 W/m2
10:19 16.6 °C 10.2 °C 996.2 hPa East 1.4 km/h 6.4 km/h 66% 0.0 mm 302.00 W/m2
10:24 16.7 °C 10.1 °C 996.2 hPa ESE 12.9 km/h 12.9 km/h 65% 0.0 mm 334.00 W/m2
10:29 16.8 °C 9.7 °C 996.2 hPa SE 6.4 km/h 9.7 km/h 63% 0.0 mm 360.00 W/m2
10:34 17.0 °C 9.9 °C 996.2 hPa ESE 3.2 km/h 11.3 km/h 63% 0.0 mm 346.00 W/m2
10:39 17.1 °C 10.0 °C 996.2 hPa SSE 1.4 km/h 8.0 km/h 63% 0.0 mm 350.00 W/m2
10:44 17.2 °C 10.1 °C 995.8 hPa SE 1.4 km/h 11.3 km/h 63% 0.0 mm 376.00 W/m2
10:49 17.3 °C 9.7 °C 995.8 hPa East 9.7 km/h 9.7 km/h 61% 0.0 mm 380.00 W/m2
10:54 17.3 °C 9.9 °C 995.8 hPa East 4.7 km/h 11.3 km/h 62% 0.0 mm 427.00 W/m2
10:59 17.4 °C 9.8 °C 995.8 hPa ENE 4.7 km/h 9.7 km/h 61% 0.0 mm 364.00 W/m2
11:04 17.6 °C 10.0 °C 995.8 hPa ESE 6.4 km/h 8.0 km/h 61% 0.0 mm 394.00 W/m2
11:09 17.7 °C 10.1 °C 995.8 hPa East 4.7 km/h 9.7 km/h 61% 0.0 mm 360.00 W/m2
11:14 17.8 °C 9.9 °C 995.8 hPa ESE 4.7 km/h 9.7 km/h 60% 0.0 mm 512.00 W/m2
11:19 17.9 °C 10.0 °C 995.8 hPa ESE 4.7 km/h 11.3 km/h 60% 0.0 mm 362.00 W/m2
11:24 17.9 °C 10.3 °C 995.8 hPa ESE 6.4 km/h 12.9 km/h 61% 0.0 mm 350.00 W/m2
11:29 18.0 °C 10.1 °C 995.8 hPa ESE 4.7 km/h 11.3 km/h 60% 0.0 mm 403.00 W/m2
11:34 18.2 °C 10.6 °C 995.8 hPa ESE 4.7 km/h 9.7 km/h 61% 0.0 mm 348.00 W/m2
11:39 18.3 °C 10.4 °C 995.8 hPa ESE 9.7 km/h 12.9 km/h 60% 0.0 mm 338.00 W/m2
11:44 18.4 °C 10.2 °C 995.8 hPa East 3.2 km/h 11.3 km/h 59% 0.0 mm 396.00 W/m2
11:49 18.5 °C 10.3 °C 995.8 hPa SSE 3.2 km/h 11.3 km/h 59% 0.0 mm 494.00 W/m2
11:54 18.7 °C 10.8 °C 995.8 hPa East 4.7 km/h 6.4 km/h 60% 0.0 mm 480.00 W/m2
11:59 18.9 °C 11.0 °C 995.8 hPa ESE 6.4 km/h 8.0 km/h 60% 0.0 mm 577.00 W/m2
12:04 19.0 °C 10.5 °C 995.8 hPa ENE 6.4 km/h 9.7 km/h 58% 0.0 mm 452.00 W/m2